createdAt,value
2022-10-26T00:00:40.036Z,7.45
2022-10-26T00:04:40.874Z,7.62
2022-10-26T00:08:40.438Z,8.5
2022-10-26T00:12:40.577Z,8.68
2022-10-26T00:16:40.903Z,8
2022-10-26T00:20:40.558Z,8.95
2022-10-26T00:24:40.465Z,8.68
2022-10-26T00:28:40.701Z,9.15
2022-10-26T00:36:40.842Z,10.43
2022-10-26T00:40:40.567Z,8.65
2022-10-26T00:44:40.669Z,8.43
2022-10-26T00:48:41.237Z,8.85
2022-10-26T00:52:40.518Z,9.02
2022-10-26T00:56:40.435Z,8.77
2022-10-26T01:00:40.444Z,9
2022-10-26T01:04:40.651Z,9.52
2022-10-26T01:08:40.562Z,8.98
2022-10-26T01:12:40.583Z,9.2
2022-10-26T01:16:42.036Z,9.63
2022-10-26T01:20:41.261Z,8.13
2022-10-26T01:24:40.486Z,9.05
2022-10-26T01:28:40.455Z,7.43
2022-10-26T01:32:40.651Z,8.73
2022-10-26T01:36:40.492Z,8.68
2022-10-26T01:40:40.586Z,7.1
2022-10-26T01:44:40.571Z,7.53
2022-10-26T01:48:40.876Z,7.75
2022-10-26T01:52:40.535Z,7.72
2022-10-26T01:56:40.415Z,8.52
2022-10-26T02:00:40.551Z,8.18
2022-10-26T02:04:40.686Z,7.18
2022-10-26T02:08:40.500Z,8.05
2022-10-26T02:12:40.558Z,8.9
2022-10-26T02:16:39.578Z,7.78
2022-10-26T02:20:39.654Z,8
2022-10-26T02:24:40.546Z,9.55
2022-10-26T02:28:40.509Z,9.07
2022-10-26T02:32:40.459Z,8.43
2022-10-26T02:36:40.634Z,8.65
2022-10-26T02:40:40.565Z,9
2022-10-26T02:44:40.297Z,8.07
2022-10-26T02:48:40.432Z,8.65
2022-10-26T02:52:40.421Z,8
2022-10-26T02:56:40.472Z,10.02
2022-10-26T03:00:40.512Z,9.43
2022-10-26T03:04:40.549Z,7.78
2022-10-26T03:08:40.436Z,7.5
2022-10-26T03:12:40.479Z,7.03
2022-10-26T03:16:40.673Z,7.32
2022-10-26T03:20:40.458Z,6.53
2022-10-26T03:24:40.505Z,7.47
2022-10-26T03:28:41.007Z,7.27
2022-10-26T03:32:40.509Z,7.93
2022-10-26T03:36:40.576Z,7.47
2022-10-26T03:40:40.528Z,6.97
2022-10-26T03:44:40.482Z,8.35
2022-10-26T03:48:40.538Z,8.1
2022-10-26T03:52:40.421Z,9.05
2022-10-26T03:56:40.631Z,8.9
2022-10-26T04:00:40.545Z,8.73
2022-10-26T04:04:40.724Z,9.8
2022-10-26T04:08:40.442Z,7.87
2022-10-26T04:12:40.606Z,7.67
2022-10-26T04:16:40.500Z,7.33
2022-10-26T04:20:40.701Z,7.73
2022-10-26T04:24:40.558Z,9
2022-10-26T04:28:40.382Z,7.63
2022-10-26T04:32:40.422Z,7.33
2022-10-26T04:36:40.434Z,7.83
2022-10-26T04:40:39.350Z,8.57
2022-10-26T04:44:40.465Z,7.1
2022-10-26T04:48:40.526Z,7.97
2022-10-26T04:52:40.555Z,7.63
2022-10-26T04:56:40.718Z,7.83
2022-10-26T05:00:40.931Z,8.33
2022-10-26T05:04:40.702Z,7.67
2022-10-26T05:08:40.540Z,7.87
2022-10-26T05:12:40.615Z,7.13
2022-10-26T05:16:40.628Z,7.43
2022-10-26T05:20:41.209Z,8.07
2022-10-26T05:24:39.927Z,7.97
2022-10-26T05:28:40.751Z,7.9
2022-10-26T05:32:40.076Z,8.03
2022-10-26T05:36:40.809Z,8
2022-10-26T05:40:40.679Z,8.03
2022-10-26T05:44:40.430Z,11.4
2022-10-26T05:48:40.703Z,8.73
2022-10-26T05:52:40.467Z,9.23
2022-10-26T05:56:40.877Z,9.67
2022-10-26T06:00:40.839Z,9.43
2022-10-26T06:04:40.442Z,9.53
2022-10-26T06:08:40.680Z,10.5
2022-10-26T06:12:40.680Z,10.7
2022-10-26T06:16:40.666Z,10.7
2022-10-26T06:20:40.685Z,11.4
2022-10-26T06:24:40.484Z,11.77
2022-10-26T06:28:40.882Z,11.98
2022-10-26T06:32:40.538Z,13
2022-10-26T06:36:40.684Z,14.32
2022-10-26T06:40:40.490Z,12.18
2022-10-26T06:44:40.508Z,13.98
2022-10-26T06:48:40.419Z,12.25
2022-10-26T06:52:39.326Z,11.63
2022-10-26T06:56:40.568Z,10.18
2022-10-26T07:00:40.790Z,11.25
2022-10-26T07:04:40.468Z,10.27
2022-10-26T07:08:40.745Z,10.77
2022-10-26T07:12:40.790Z,11.38
2022-10-26T07:16:40.987Z,11.35
2022-10-26T07:20:40.818Z,11.38
2022-10-26T07:24:41.007Z,11.02
2022-10-26T07:28:40.522Z,12.45
2022-10-26T07:32:40.514Z,10.95
2022-10-26T07:36:40.441Z,11.75
2022-10-26T07:40:40.640Z,11.25
2022-10-26T07:44:40.882Z,10.63
2022-10-26T07:48:40.640Z,10.95
2022-10-26T07:52:40.722Z,10.35
2022-10-26T07:56:40.619Z,11.3
2022-10-26T08:00:40.799Z,11.18
2022-10-26T08:04:40.644Z,10.43
2022-10-26T08:08:44.863Z,11.12
2022-10-26T08:12:40.962Z,11.6
2022-10-26T08:16:40.583Z,9.63
2022-10-26T08:20:40.655Z,10.18
2022-10-26T08:24:40.527Z,9.48
2022-10-26T08:28:40.522Z,8.82
2022-10-26T08:32:40.858Z,9.95
2022-10-26T08:36:40.474Z,8.8
2022-10-26T08:40:41.090Z,7.68
2022-10-26T08:44:40.631Z,6.78
2022-10-26T08:48:40.574Z,7.25
2022-10-26T08:52:40.983Z,6.57
2022-10-26T08:56:40.485Z,6.62
2022-10-26T09:00:40.584Z,5.22
2022-10-26T09:04:40.915Z,5.47
2022-10-26T09:08:40.661Z,4.32
2022-10-26T09:12:40.539Z,3.58
2022-10-26T09:16:40.565Z,3.5
2022-10-26T09:20:40.497Z,4.05
2022-10-26T09:24:40.522Z,2.55
2022-10-26T09:28:40.661Z,2.5
2022-10-26T09:32:40.541Z,2.67
2022-10-26T09:36:40.550Z,2.58
2022-10-26T09:40:40.565Z,2.35
2022-10-26T09:44:40.502Z,2.05
2022-10-26T09:48:40.458Z,1.6
2022-10-26T09:52:40.401Z,1.75
2022-10-26T09:56:40.549Z,1.7
2022-10-26T10:00:40.628Z,2.33
2022-10-26T10:04:40.298Z,2.35
2022-10-26T10:08:40.503Z,1.58
2022-10-26T10:12:40.621Z,1.52
2022-10-26T10:16:40.792Z,1.98
2022-10-26T10:20:40.482Z,1.98
2022-10-26T10:24:40.482Z,1.58
2022-10-26T10:28:40.496Z,1.98
2022-10-26T10:32:41.523Z,2.22
2022-10-26T10:36:40.409Z,1.67
2022-10-26T10:40:40.954Z,3.45
2022-10-26T10:44:41.027Z,2.33
2022-10-26T10:48:40.677Z,2.58
2022-10-26T10:52:40.441Z,2.25
2022-10-26T10:56:39.543Z,2.08
2022-10-26T11:00:40.682Z,2.1
2022-10-26T11:04:40.586Z,2.05
2022-10-26T11:08:40.444Z,1.25
2022-10-26T11:12:40.512Z,1.75
2022-10-26T11:16:39.369Z,1.8
2022-10-26T11:20:40.963Z,1.67
2022-10-26T11:24:40.684Z,1.67
2022-10-26T11:28:41.236Z,2.2
2022-10-26T11:32:40.569Z,1.85
2022-10-26T11:36:39.263Z,1.7
2022-10-26T11:40:40.589Z,1.2
2022-10-26T11:44:40.521Z,1.6
2022-10-26T11:48:40.500Z,1.75
2022-10-26T11:52:40.535Z,1.58
2022-10-26T11:56:40.488Z,1.92
2022-10-26T12:00:40.781Z,1.62
2022-10-26T12:04:40.911Z,2.03
2022-10-26T12:08:40.564Z,1.4
2022-10-26T12:12:40.513Z,1.73
2022-10-26T12:16:40.715Z,2.03
2022-10-26T12:20:40.568Z,1.6
2022-10-26T12:24:40.636Z,1.83
2022-10-26T12:28:40.485Z,1.62
2022-10-26T12:32:43.661Z,1.08
2022-10-26T12:36:40.374Z,1.37
2022-10-26T12:40:40.577Z,1.45
2022-10-26T12:44:40.463Z,1.25
2022-10-26T12:48:40.554Z,1.33
2022-10-26T12:52:40.496Z,1.73
2022-10-26T12:56:40.787Z,1.65
2022-10-26T13:00:40.649Z,1.42
2022-10-26T13:04:40.515Z,1.6
2022-10-26T13:08:40.454Z,1.9
2022-10-26T13:12:40.523Z,1.92
2022-10-26T13:16:41.016Z,1.65
2022-10-26T13:20:39.569Z,1.6
2022-10-26T13:24:40.837Z,1.62
2022-10-26T13:28:40.474Z,1.42
2022-10-26T13:32:41.288Z,1.87
2022-10-26T13:36:40.889Z,2.58
2022-10-26T13:40:40.732Z,1.87
2022-10-26T13:44:40.500Z,2.2
2022-10-26T13:48:40.501Z,1.75
2022-10-26T13:52:40.500Z,2.42
2022-10-26T13:56:40.371Z,1.83
2022-10-26T14:00:41.611Z,2.2
2022-10-26T14:04:41.176Z,2.2
2022-10-26T14:08:40.392Z,2.2
2022-10-26T14:12:40.698Z,2.08
2022-10-26T14:16:40.747Z,2.03
2022-10-26T14:20:40.574Z,1.9
2022-10-26T14:24:47.417Z,2.95
2022-10-26T14:28:40.456Z,2
2022-10-26T14:32:40.501Z,1.92
2022-10-26T14:36:40.513Z,2.28
2022-10-26T14:40:40.690Z,1.73
2022-10-26T14:44:40.579Z,1.92
2022-10-26T14:48:40.746Z,2.1
2022-10-26T14:52:40.477Z,2.12
2022-10-26T14:56:41.244Z,2.28
2022-10-26T15:00:40.744Z,2.1
2022-10-26T15:04:40.539Z,2.45
2022-10-26T15:08:56.129Z,2.05
2022-10-26T15:12:40.438Z,2.37
2022-10-26T15:16:40.500Z,2.25
2022-10-26T15:20:40.689Z,2.15
2022-10-26T15:24:40.466Z,2.35
2022-10-26T15:28:40.483Z,2.4
2022-10-26T15:32:40.489Z,3.08
2022-10-26T15:36:40.517Z,2.45
2022-10-26T15:40:40.387Z,2.2
2022-10-26T15:44:39.651Z,2.25
2022-10-26T15:48:40.882Z,6.6
2022-10-26T15:52:42.279Z,4.22
2022-10-26T15:56:40.551Z,3.7
2022-10-26T16:00:40.589Z,4.15
2022-10-26T16:04:39.877Z,4.43
2022-10-26T16:08:41.109Z,4.87
2022-10-26T16:12:40.814Z,4.5
2022-10-26T16:16:40.510Z,4.5
2022-10-26T16:20:41.307Z,4
2022-10-26T16:24:40.482Z,3.75
2022-10-26T16:28:40.482Z,4.25
2022-10-26T16:32:40.557Z,3.7
2022-10-26T16:36:40.674Z,4.55
2022-10-26T16:40:40.486Z,4.43
2022-10-26T16:44:40.342Z,4.47
2022-10-26T16:48:40.851Z,5
2022-10-26T16:52:40.508Z,7.28
2022-10-26T16:56:40.761Z,7.62
2022-10-26T17:00:40.504Z,7
2022-10-26T17:04:40.449Z,6.03
2022-10-26T17:08:40.529Z,5.62
2022-10-26T17:12:40.455Z,5.03
2022-10-26T17:16:40.415Z,6.03
2022-10-26T17:20:40.575Z,5.45
2022-10-26T17:24:40.762Z,5.62
2022-10-26T17:28:40.921Z,5.45
2022-10-26T17:32:41.019Z,4.72
2022-10-26T17:36:40.429Z,5.93
2022-10-26T17:40:40.607Z,5.4
2022-10-26T17:44:40.570Z,4.95
2022-10-26T17:48:40.718Z,4.15
2022-10-26T17:52:40.401Z,4.3
2022-10-26T17:56:40.067Z,4.95
2022-10-26T18:00:41.276Z,4.43
2022-10-26T18:04:40.603Z,4.43
2022-10-26T18:08:40.455Z,4.72
2022-10-26T18:12:40.956Z,4.22
2022-10-26T18:16:40.722Z,4.97
2022-10-26T18:20:40.517Z,4.5
2022-10-26T18:24:40.923Z,4.68
2022-10-26T18:28:41.059Z,4.45
2022-10-26T18:32:40.837Z,4.43
2022-10-26T18:36:40.151Z,4.37
2022-10-26T18:40:41.106Z,4.87
2022-10-26T18:44:40.526Z,5.7
2022-10-26T18:48:40.492Z,4.55
2022-10-26T18:52:40.476Z,4.43
2022-10-26T18:56:40.547Z,4.28
2022-10-26T19:00:40.940Z,4.35
2022-10-26T19:04:40.489Z,5
2022-10-26T19:08:40.493Z,5.18
2022-10-26T19:12:40.552Z,4.6
2022-10-26T19:16:48.292Z,5.07
2022-10-26T19:20:42.716Z,4.62
2022-10-26T19:24:40.463Z,5.45
2022-10-26T19:28:40.310Z,5
2022-10-26T19:32:41.094Z,5.28
2022-10-26T19:36:40.430Z,5.5
2022-10-26T19:40:40.546Z,5.78
2022-10-26T19:44:40.531Z,6
2022-10-26T19:48:40.516Z,4.87
2022-10-26T19:52:40.634Z,5.37
2022-10-26T19:56:39.554Z,4.95
2022-10-26T20:00:40.649Z,5.4
2022-10-26T20:04:40.527Z,5.6
2022-10-26T20:08:40.443Z,5.2
2022-10-26T20:12:40.454Z,6.18
2022-10-26T20:16:40.489Z,5.47
2022-10-26T20:20:40.931Z,5.85
2022-10-26T20:24:40.018Z,5.85
2022-10-26T20:28:40.821Z,7.43
2022-10-26T20:32:40.540Z,6.32
2022-10-26T20:36:40.507Z,7
2022-10-26T20:40:40.525Z,6.6
2022-10-26T20:44:40.467Z,7.8
2022-10-26T20:48:40.497Z,6.3
2022-10-26T20:52:40.646Z,6.2
2022-10-26T20:56:40.718Z,7.43
2022-10-26T21:00:40.841Z,7.2
2022-10-26T21:04:41.144Z,7.45
2022-10-26T21:08:40.509Z,7
2022-10-26T21:12:40.477Z,6.72
2022-10-26T21:16:40.509Z,7.55
2022-10-26T21:20:40.514Z,6.87
2022-10-26T21:24:40.447Z,6.6
2022-10-26T21:28:40.854Z,6.95
2022-10-26T21:32:41.117Z,6.93
2022-10-26T21:36:40.471Z,6.53
2022-10-26T21:40:40.643Z,6.8
2022-10-26T21:44:41.570Z,6.95
2022-10-26T21:48:40.470Z,6.95
2022-10-26T21:52:40.496Z,6.22
2022-10-26T21:56:40.491Z,6.7
2022-10-26T22:00:39.749Z,6.25
2022-10-26T22:04:41.099Z,6.43
2022-10-26T22:08:40.658Z,6.6
2022-10-26T22:12:40.597Z,6.93
2022-10-26T22:16:40.778Z,5.82
2022-10-26T22:20:40.433Z,6.8
2022-10-26T22:24:40.860Z,6.5
2022-10-26T22:28:42.659Z,7
2022-10-26T22:32:40.562Z,6.57
2022-10-26T22:36:40.615Z,6.6
2022-10-26T22:40:40.525Z,6.95
2022-10-26T22:44:40.716Z,7.05
2022-10-26T22:48:39.624Z,6.57
2022-10-26T22:52:40.304Z,7.32
2022-10-26T22:56:40.518Z,6.85
2022-10-26T23:00:40.460Z,6.62
2022-10-26T23:04:40.662Z,6.57
2022-10-26T23:08:40.495Z,7.35
2022-10-26T23:12:40.588Z,6.95
2022-10-26T23:16:40.380Z,7.2
2022-10-26T23:20:40.658Z,6.78
2022-10-26T23:24:40.630Z,7.6
2022-10-26T23:28:40.524Z,7.25
2022-10-26T23:32:40.905Z,7.15
2022-10-26T23:36:40.462Z,6.87
2022-10-26T23:40:40.483Z,6.93
2022-10-26T23:44:40.515Z,8.4
2022-10-26T23:48:40.530Z,7.03
2022-10-26T23:52:40.449Z,7.37
2022-10-26T23:56:40.683Z,8.05
